Time;durP1;ratioP1;P1;durP2;ratioP2;P2;SDS_P1;SDS_P2;PMS_P1;PMS_P2;Temp;Humidity;BMP_temperature;BMP_pressure;BME280_temperature;BME280_humidity;BME280_pressure;Samples;Min_cycle;Max_cycle;Signal;HPM_P1;HPM_P2
2021/11/06 00:01:47;;;;;;;12.25;1.95;;;;;;;7.23;100.00;102187.53;5032287;28;20582;-84
2021/11/06 00:04:12;;;;;;;11.38;1.90;;;;;;;7.13;100.00;102194.22;5036225;28;20037;-83
2021/11/06 00:06:39;;;;;;;10.60;1.88;;;;;;;7.10;100.00;102189.16;5031725;28;20045;-80
2021/11/06 00:09:05;;;;;;;13.63;2.10;;;;;;;7.02;100.00;102189.63;5030887;28;20051;-83
2021/11/06 00:11:31;;;;;;;11.82;2.05;;;;;;;7.08;100.00;102194.47;5030921;28;20526;-83
2021/11/06 00:13:57;;;;;;;8.90;1.90;;;;;;;7.01;100.00;102199.22;5034092;28;20032;-85
2021/11/06 00:16:22;;;;;;;11.88;1.90;;;;;;;6.88;100.00;102187.81;5019932;28;20539;-83
2021/11/06 00:18:48;;;;;;;8.48;1.67;;;;;;;6.94;100.00;102199.66;5047883;28;20499;-84
2021/11/06 00:21:13;;;;;;;11.63;1.98;;;;;;;6.90;100.00;102199.00;5048694;28;20035;-84
2021/11/06 00:23:39;;;;;;;13.60;2.05;;;;;;;6.90;100.00;102201.59;5045370;28;20025;-82
2021/11/06 00:26:04;;;;;;;5.80;1.80;;;;;;;6.92;100.00;102204.13;5053166;28;20037;-83
2021/11/06 00:28:30;;;;;;;14.23;2.20;;;;;;;6.81;100.00;102192.50;5041818;28;20039;-84
2021/11/06 00:30:55;;;;;;;9.07;2.08;;;;;;;6.94;100.00;102213.53;5040461;28;20064;-82
2021/11/06 00:33:21;;;;;;;9.52;1.75;;;;;;;6.96;100.00;102222.09;5040171;28;20438;-81
2021/11/06 00:35:46;;;;;;;10.75;1.98;;;;;;;7.02;100.00;102216.53;5033275;28;20086;-82
2021/11/06 00:38:12;;;;;;;6.53;1.70;;;;;;;7.02;100.00;102221.75;5058308;28;20059;-84
2021/11/06 00:40:37;;;;;;;10.98;1.80;;;;;;;7.06;100.00;102214.59;5023090;28;20036;-84
2021/11/06 00:43:03;;;;;;;10.75;1.73;;;;;;;7.09;100.00;102221.44;5005924;28;20036;-84
2021/11/06 00:45:28;;;;;;;11.52;1.67;;;;;;;7.08;100.00;102224.94;5015307;28;20044;-83
2021/11/06 00:47:54;;;;;;;17.80;1.98;;;;;;;7.09;100.00;102218.81;5029577;28;20544;-83
2021/11/06 00:50:20;;;;;;;11.65;2.28;;;;;;;7.10;100.00;102223.09;5024437;28;20036;-84
2021/11/06 00:52:47;;;;;;;11.73;2.13;;;;;;;7.15;100.00;102232.34;5025118;28;20132;-84
2021/11/06 00:55:14;;;;;;;13.65;2.10;;;;;;;7.04;100.00;102213.84;5042242;28;20450;-83
2021/11/06 00:57:40;;;;;;;11.80;1.73;;;;;;;7.11;100.00;102220.41;5001869;28;20061;-85
2021/11/06 01:00:09;;;;;;;10.02;1.70;;;;;;;7.05;100.00;102219.94;5025817;28;20036;-83
2021/11/06 01:02:35;;;;;;;11.57;2.00;;;;;;;7.03;100.00;102204.34;5024302;28;20479;-84
2021/11/06 01:05:01;;;;;;;10.70;2.20;;;;;;;7.08;100.00;102224.94;5057227;28;20041;-84
2021/11/06 01:07:26;;;;;;;9.52;1.85;;;;;;;7.07;100.00;102226.72;5039298;28;20403;-84
2021/11/06 01:09:52;;;;;;;8.32;1.63;;;;;;;7.05;100.00;102220.75;5025465;28;20028;-82
2021/11/06 01:12:17;;;;;;;5.40;1.67;;;;;;;6.95;100.00;102212.63;5026534;28;20033;-84
2021/11/06 01:14:43;;;;;;;7.03;1.77;;;;;;;6.96;100.00;102211.69;5044328;28;20418;-84
2021/11/06 01:17:08;;;;;;;9.70;2.03;;;;;;;7.01;100.00;102214.88;5055491;28;20036;-85
2021/11/06 01:19:34;;;;;;;12.32;2.30;;;;;;;7.02;100.00;102221.75;5028840;28;20033;-84
2021/11/06 01:21:59;;;;;;;16.88;1.98;;;;;;;6.99;100.00;102218.50;5041227;28;20037;-84
2021/11/06 01:24:25;;;;;;;7.97;1.85;;;;;;;6.98;100.00;102224.63;5025029;28;20029;-84
2021/11/06 01:26:52;;;;;;;12.57;2.10;;;;;;;7.08;100.00;102217.13;5026252;28;20522;-85
2021/11/06 01:29:18;;;;;;;13.15;2.00;;;;;;;7.05;100.00;102223.38;5028533;28;20040;-83
2021/11/06 01:31:44;;;;;;;9.52;1.77;;;;;;;7.07;100.00;102218.91;5046288;28;20045;-84
2021/11/06 01:34:09;;;;;;;11.27;1.58;;;;;;;7.03;100.00;102222.63;5027667;28;20061;-84
2021/11/06 01:36:35;;;;;;;12.10;1.88;;;;;;;7.02;100.00;102228.75;5058137;28;20079;-84
2021/11/06 01:39:00;;;;;;;11.80;1.45;;;;;;;7.00;100.00;102218.38;5032760;28;20115;-81
2021/11/06 01:41:26;;;;;;;6.65;1.60;;;;;;;7.00;100.00;102217.56;5039104;28;20033;-82
2021/11/06 01:43:51;;;;;;;6.50;1.88;;;;;;;6.90;100.00;102201.59;5043772;28;20098;-82
2021/11/06 01:46:17;;;;;;;11.45;1.70;;;;;;;6.96;100.00;102214.28;5017296;28;20036;-84
2021/11/06 01:48:43;;;;;;;10.07;1.70;;;;;;;6.99;100.00;102221.94;5031260;28;20048;-84
2021/11/06 01:51:09;;;;;;;14.43;2.00;;;;;;;6.98;100.00;102222.03;5036358;28;20033;-83
2021/11/06 01:53:35;;;;;;;9.65;1.73;;;;;;;6.95;100.00;102220.44;5039234;28;20506;-84
2021/11/06 01:56:00;;;;;;;7.80;1.90;;;;;;;7.01;100.00;102214.88;5033844;28;20051;-83
2021/11/06 01:58:28;;;;;;;15.38;1.95;;;;;;;6.92;100.00;102214.56;5043525;28;20041;-83
2021/11/06 02:00:54;;;;;;;8.80;1.73;;;;;;;6.91;100.00;102208.50;5045463;28;20052;-84
2021/11/06 02:03:20;;;;;;;14.57;1.65;;;;;;;6.93;100.00;102206.66;5014938;28;20044;-84
2021/11/06 02:05:45;;;;;;;12.43;1.83;;;;;;;6.89;100.00;102212.09;5046709;28;20033;-84
2021/11/06 02:08:12;;;;;;;9.75;1.92;;;;;;;6.87;100.00;102211.34;5043796;28;20083;-84
2021/11/06 02:10:40;;;;;;;14.13;1.98;;;;;;;6.88;100.00;102215.66;5040449;28;20064;-84
2021/11/06 02:13:06;;;;;;;10.98;1.70;;;;;;;6.87;100.00;102214.78;5042605;28;20064;-84
2021/11/06 02:15:32;;;;;;;7.28;2.30;;;;;;;6.87;100.00;102206.13;5031436;28;20124;-83
2021/11/06 02:17:57;;;;;;;8.45;2.10;;;;;;;6.95;100.00;102201.31;5043282;28;20190;-83
2021/11/06 02:20:23;;;;;;;13.07;1.90;;;;;;;6.97;100.00;102208.16;5045287;28;20037;-84
2021/11/06 02:22:49;;;;;;;7.22;1.50;;;;;;;7.05;100.00;102202.50;5042783;28;20039;-84
2021/11/06 02:25:15;;;;;;;8.95;1.70;;;;;;;6.91;100.00;102194.59;5032560;28;20091;-85
2021/11/06 02:27:42;;;;;;;7.32;1.70;;;;;;;7.00;100.00;102207.13;5034657;28;20044;-84
2021/11/06 02:30:11;;;;;;;7.40;2.15;;;;;;;6.97;100.00;102202.94;5027108;28;20040;-84
2021/11/06 02:32:37;;;;;;;8.00;1.92;;;;;;;6.97;100.00;102202.09;5040578;28;20474;-82
2021/11/06 02:35:05;;;;;;;8.25;1.88;;;;;;;7.10;100.00;102220.47;5042660;28;20037;-84
2021/11/06 02:37:30;;;;;;;13.32;2.30;;;;;;;7.04;100.00;102207.78;5042692;28;20056;-82
2021/11/06 02:39:56;;;;;;;9.80;2.30;;;;;;;7.06;100.00;102221.59;5059192;28;20056;-83
2021/11/06 02:42:21;;;;;;;7.53;2.10;;;;;;;7.09;100.00;102216.22;5044146;28;20071;-84
2021/11/06 02:44:48;;;;;;;9.60;1.98;;;;;;;7.10;100.00;102223.09;5057804;28;20033;-83
2021/11/06 02:47:13;;;;;;;9.13;2.58;;;;;;;7.04;100.00;102219.06;5039812;28;20036;-83
2021/11/06 02:49:39;;;;;;;8.05;2.00;;;;;;;7.00;100.00;102222.78;5044521;28;20072;-82
2021/11/06 02:52:05;;;;;;;10.02;2.10;;;;;;;7.08;100.00;102214.50;5016139;28;20105;-84
2021/11/06 02:54:30;;;;;;;14.07;2.60;;;;;;;7.04;100.00;102218.22;5026241;28;20033;-83
2021/11/06 02:56:56;;;;;;;11.18;2.78;;;;;;;6.97;100.00;102215.16;5035710;28;20021;-84
2021/11/06 02:59:22;;;;;;;13.63;2.33;;;;;;;7.05;100.00;102219.94;5028133;28;20037;-83
2021/11/06 03:01:48;;;;;;;13.15;2.88;;;;;;;7.08;100.00;102220.56;5042671;28;20039;-84
2021/11/06 03:04:13;;;;;;;14.77;2.63;;;;;;;7.05;100.00;102223.38;5042543;28;20510;-83
2021/11/06 03:06:40;;;;;;;9.60;2.45;;;;;;;7.10;100.00;102223.09;5042047;28;20090;-83
2021/11/06 03:09:06;;;;;;;8.13;2.53;;;;;;;7.05;100.00;102212.94;5041341;28;20033;-84
2021/11/06 03:11:34;;;;;;;12.02;2.25;;;;;;;7.20;100.00;102225.09;5024965;28;20043;-83
2021/11/06 03:14:01;;;;;;;4.80;2.45;;;;;;;7.19;100.00;102230.41;5040722;28;20348;-83
2021/11/06 03:16:27;;;;;;;7.78;2.40;;;;;;;7.13;100.00;102221.16;5008752;28;20029;-84
2021/11/06 03:18:53;;;;;;;13.40;2.67;;;;;;;7.11;100.00;102206.53;5043586;28;20044;-83
2021/11/06 03:21:20;;;;;;;8.73;2.90;;;;;;;7.16;100.00;102215.75;5024465;28;20083;-83
2021/11/06 03:23:46;;;;;;;9.35;2.60;;;;;;;7.12;100.00;102210.78;5026004;28;20449;-82
2021/11/06 03:26:12;;;;;;;14.35;3.25;;;;;;;7.08;100.00;102214.50;5008555;28;20036;-83
2021/11/06 03:28:38;;;;;;;10.07;2.70;;;;;;;7.09;100.00;102214.44;5030055;28;20545;-82
2021/11/06 03:31:05;;;;;;;14.63;3.90;;;;;;;7.04;100.00;102208.63;5041011;28;20176;-83
2021/11/06 03:33:30;;;;;;;11.25;3.30;;;;;;;7.02;100.00;102211.31;5026445;28;20087;-84
2021/11/06 03:35:56;;;;;;;11.57;3.55;;;;;;;6.98;100.00;102208.97;5057485;28;20028;-83
2021/11/06 03:38:22;;;;;;;12.27;3.67;;;;;;;6.91;100.00;102198.06;5024348;28;20072;-83
2021/11/06 03:40:47;;;;;;;9.43;3.50;;;;;;;6.97;100.00;102200.31;5056289;28;20071;-82
2021/11/06 03:43:13;;;;;;;10.60;3.80;;;;;;;7.05;100.00;102210.31;5038984;28;20029;-83
2021/11/06 03:45:40;;;;;;;10.23;3.42;;;;;;;7.04;100.00;102210.41;5052089;28;20029;-83
2021/11/06 03:48:05;;;;;;;10.65;3.45;;;;;;;6.97;100.00;102208.16;5023280;28;20040;-83
2021/11/06 03:50:31;;;;;;;14.35;3.63;;;;;;;6.93;100.00;102211.88;5034426;28;20037;-83
2021/11/06 03:52:57;;;;;;;10.63;3.63;;;;;;;6.87;100.00;102212.19;5040885;28;20100;-83
2021/11/06 03:55:23;;;;;;;11.85;3.53;;;;;;;6.83;100.00;102203.69;5022730;28;20046;-82
2021/11/06 03:57:48;;;;;;;12.32;4.28;;;;;;;6.77;100.00;102203.22;5026690;28;20033;-83
2021/11/06 04:00:16;;;;;;;17.20;4.43;;;;;;;6.70;100.00;102207.91;5040626;28;20030;-81
2021/11/06 04:02:43;;;;;;;15.75;4.03;;;;;;;6.68;100.00;102199.34;5041596;28;20033;-83
2021/11/06 04:05:10;;;;;;;9.10;3.60;;;;;;;6.75;100.00;102186.81;5037524;28;20037;-84
2021/11/06 04:07:36;;;;;;;14.35;3.83;;;;;;;6.85;100.00;102190.56;5023642;28;20029;-83
2021/11/06 04:10:02;;;;;;;9.60;4.30;;;;;;;6.80;100.00;102184.78;5037682;28;20040;-84
2021/11/06 04:12:28;;;;;;;7.07;3.72;;;;;;;6.83;100.00;102197.66;5022183;28;20071;-83
2021/11/06 04:14:54;;;;;;;11.13;4.10;;;;;;;6.92;100.00;102196.28;5026890;28;20032;-83
2021/11/06 04:17:19;;;;;;;18.73;4.45;;;;;;;6.89;100.00;102194.69;5055579;28;20115;-83
2021/11/06 04:19:45;;;;;;;12.10;4.25;;;;;;;6.98;100.00;102203.75;5026463;28;20029;-83
2021/11/06 04:22:10;;;;;;;13.25;4.70;;;;;;;6.99;100.00;102214.13;5009985;28;20041;-83
2021/11/06 04:24:36;;;;;;;11.30;4.65;;;;;;;7.07;100.00;102221.50;5036603;28;20029;-83
2021/11/06 04:27:03;;;;;;;19.38;5.03;;;;;;;7.11;100.00;102219.56;5028570;28;20033;-83
2021/11/06 04:29:28;;;;;;;12.73;4.70;;;;;;;7.04;100.00;102218.22;5049102;28;20038;-83
2021/11/06 04:31:54;;;;;;;11.05;4.70;;;;;;;7.11;100.00;102224.78;5030251;28;20201;-83
2021/11/06 04:34:20;;;;;;;15.55;4.25;;;;;;;7.05;100.00;102217.31;5055671;28;20072;-83
2021/11/06 04:36:46;;;;;;;17.33;4.25;;;;;;;7.03;100.00;102217.41;5025634;28;20041;-83
2021/11/06 04:39:12;;;;;;;10.60;4.32;;;;;;;7.04;100.00;102218.22;5052470;28;20092;-84
2021/11/06 04:41:37;;;;;;;8.98;3.75;;;;;;;7.01;100.00;102220.09;5036265;28;20072;-83
2021/11/06 04:44:03;;;;;;;13.30;4.80;;;;;;;7.05;100.00;102215.53;5041875;28;20036;-84
2021/11/06 04:46:29;;;;;;;10.38;4.68;;;;;;;7.02;100.00;102206.09;5045990;28;20084;-83
2021/11/06 04:48:54;;;;;;;15.57;5.70;;;;;;;7.05;100.00;102214.72;5024094;28;20036;-83
2021/11/06 04:51:20;;;;;;;9.02;4.47;;;;;;;7.06;100.00;102211.97;5040011;28;20124;-83
2021/11/06 04:53:45;;;;;;;9.43;4.70;;;;;;;7.04;100.00;102215.63;5040137;28;20075;-83
2021/11/06 04:56:11;;;;;;;13.20;5.10;;;;;;;7.00;100.00;102222.78;5023270;28;20594;-83
2021/11/06 04:58:36;;;;;;;12.63;4.70;;;;;;;6.92;100.00;102212.78;5028668;28;20028;-82
2021/11/06 05:01:02;;;;;;;12.00;5.03;;;;;;;6.91;100.00;102213.72;5017428;28;20067;-83
2021/11/06 05:03:28;;;;;;;20.98;5.32;;;;;;;6.94;100.00;102223.13;5046374;28;20037;-82
2021/11/06 05:05:54;;;;;;;13.27;5.82;;;;;;;6.88;100.00;102215.66;5034443;28;20052;-83
2021/11/06 05:08:19;;;;;;;16.95;6.35;;;;;;;6.98;100.00;102225.47;5056079;28;20044;-83
2021/11/06 05:10:45;;;;;;;19.40;5.72;;;;;;;7.04;100.00;102236.50;5038145;28;20070;-83
2021/11/06 05:13:11;;;;;;;13.30;5.78;;;;;;;7.05;100.00;102227.75;5037082;28;20448;-82
2021/11/06 05:15:36;;;;;;;14.77;6.30;;;;;;;7.00;100.00;102212.34;5037764;28;20052;-82
2021/11/06 05:18:02;;;;;;;19.48;6.75;;;;;;;7.08;100.00;102223.16;5027068;28;20029;-82
2021/11/06 05:20:28;;;;;;;9.73;6.50;;;;;;;6.91;100.00;102210.25;5037044;28;20041;-83
2021/11/06 05:22:54;;;;;;;16.40;6.40;;;;;;;7.02;100.00;102234.78;5017680;28;20036;-81
2021/11/06 05:25:19;;;;;;;18.88;6.35;;;;;;;6.99;100.00;102216.72;5037268;28;20033;-82
2021/11/06 05:27:45;;;;;;;15.65;7.05;;;;;;;6.98;100.00;102211.59;5037437;28;20047;-82
2021/11/06 05:30:12;;;;;;;14.02;6.43;;;;;;;7.05;100.00;102227.75;5021545;28;20085;-83
2021/11/06 05:32:37;;;;;;;15.90;7.53;;;;;;;7.01;100.00;102214.03;5023236;28;20044;-82
2021/11/06 05:35:05;;;;;;;19.90;7.05;;;;;;;7.08;100.00;102224.94;5037904;28;20407;-82
2021/11/06 05:37:31;;;;;;;14.35;6.85;;;;;;;7.02;100.00;102215.69;5054766;28;20033;-82
2021/11/06 05:39:56;;;;;;;12.00;7.40;;;;;;;7.07;100.00;102224.13;5004585;28;20037;-82
2021/11/06 05:42:22;;;;;;;17.17;7.65;;;;;;;6.98;100.00;102214.19;5041210;28;20041;-84
2021/11/06 05:44:47;;;;;;;15.85;7.95;;;;;;;7.07;100.00;102226.72;5029268;28;20165;-83
2021/11/06 05:47:13;;;;;;;17.67;7.95;;;;;;;7.02;100.00;102221.75;5035252;28;20232;-82
2021/11/06 05:49:38;;;;;;;20.17;8.98;;;;;;;7.04;100.00;102218.22;5011247;28;20179;-83
2021/11/06 05:52:04;;;;;;;14.80;9.00;;;;;;;7.03;100.00;102214.78;5053732;28;20082;-82
2021/11/06 05:54:30;;;;;;;21.05;9.20;;;;;;;7.04;100.00;102211.22;5049451;28;20083;-82
2021/11/06 05:56:55;;;;;;;18.65;8.70;;;;;;;6.95;100.00;102217.84;5036138;28;20095;-82
2021/11/06 05:59:21;;;;;;;15.00;9.27;;;;;;;6.89;100.00;102204.28;5040727;28;20099;-83
2021/11/06 06:01:47;;;;;;;21.67;9.73;;;;;;;6.85;100.00;102214.03;5036894;28;20103;-84
2021/11/06 06:04:12;;;;;;;20.27;8.98;;;;;;;6.73;100.00;102219.97;5027548;28;20041;-84
2021/11/06 06:06:38;;;;;;;18.42;9.40;;;;;;;6.78;100.00;102237.03;5018013;28;20059;-84
2021/11/06 06:09:03;;;;;;;20.17;9.88;;;;;;;6.74;100.00;102226.84;5031058;28;20127;-83
2021/11/06 06:11:29;;;;;;;21.30;10.07;;;;;;;6.76;100.00;102211.94;5042309;28;20053;-84
2021/11/06 06:13:54;;;;;;;19.35;9.77;;;;;;;6.81;100.00;102226.41;5008617;28;20087;-83
2021/11/06 06:16:20;;;;;;;21.00;10.63;;;;;;;6.71;100.00;102222.66;5030237;28;20067;-83
2021/11/06 06:18:46;;;;;;;19.92;11.30;;;;;;;6.78;100.00;102228.34;5029631;28;20033;-83
2021/11/06 06:21:12;;;;;;;16.67;11.18;;;;;;;6.80;100.00;102218.69;5028707;28;20060;-84
2021/11/06 06:23:39;;;;;;;20.02;11.23;;;;;;;6.81;100.00;102220.38;5032018;28;20097;-83
2021/11/06 06:26:04;;;;;;;24.55;11.85;;;;;;;6.70;100.00;102223.56;5040254;28;20048;-82
2021/11/06 06:28:30;;;;;;;18.77;11.23;;;;;;;6.76;100.00;102231.06;5059013;28;20056;-84
2021/11/06 06:30:55;;;;;;;20.80;11.13;;;;;;;6.78;100.00;102231.81;5045235;28;20037;-83
2021/11/06 06:33:21;;;;;;;26.15;11.75;;;;;;;6.69;100.00;102216.69;5042495;28;20033;-82
2021/11/06 06:35:46;;;;;;;16.63;10.93;;;;;;;6.84;100.00;102238.47;5014621;28;20036;-83
2021/11/06 06:38:12;;;;;;;19.20;10.85;;;;;;;6.72;100.00;102221.72;5047930;28;20036;-83
2021/11/06 06:40:37;;;;;;;17.67;10.65;;;;;;;6.82;100.00;102237.72;5042921;28;20060;-83
2021/11/06 06:43:03;;;;;;;22.92;11.75;;;;;;;6.84;100.00;102241.06;5042271;28;20033;-83
2021/11/06 06:45:28;;;;;;;20.00;11.10;;;;;;;6.90;100.00;102247.72;5045285;28;20089;-83
2021/11/06 06:47:54;;;;;;;25.00;11.50;;;;;;;6.85;100.00;102244.50;5034725;28;20052;-83
2021/11/06 06:50:20;;;;;;;21.58;11.45;;;;;;;6.94;100.00;102259.66;5006407;28;20037;-83
2021/11/06 06:52:45;;;;;;;20.50;12.73;;;;;;;6.88;100.00;102255.63;5044497;28;20036;-83
2021/11/06 06:55:11;;;;;;;20.95;11.80;;;;;;;7.00;100.00;102243.66;5042421;28;20029;-83
2021/11/06 06:57:37;;;;;;;23.60;13.50;;;;;;;7.17;100.00;102251.34;5029476;28;20043;-83
2021/11/06 07:00:06;;;;;;;26.88;14.18;;;;;;;7.20;100.00;102259.03;5029455;28;20059;-83
2021/11/06 07:02:31;;;;;;;25.77;14.65;;;;;;;7.16;100.00;102252.31;5053403;28;20033;-83
2021/11/06 07:04:58;;;;;;;22.65;14.10;;;;;;;7.17;100.00;102248.75;5055299;28;20029;-82
2021/11/06 07:07:23;;;;;;;22.40;14.50;;;;;;;7.27;100.00;102256.06;5016264;28;20067;-83
2021/11/06 07:09:50;;;;;;;21.80;14.43;;;;;;;7.12;100.00;102249.94;5032934;28;20037;-83
2021/11/06 07:12:15;;;;;;;27.60;15.00;;;;;;;7.30;100.00;102272.38;5025117;28;20038;-83
2021/11/06 07:14:41;;;;;;;32.10;15.75;;;;;;;7.25;100.00;102256.13;5014037;28;20097;-83
2021/11/06 07:17:06;;;;;;;28.15;16.02;;;;;;;7.31;100.00;102268.00;5029967;28;20044;-82
2021/11/06 07:19:32;;;;;;;25.23;15.88;;;;;;;7.25;100.00;102260.53;5061866;28;20037;-82
2021/11/06 07:21:57;;;;;;;35.40;17.27;;;;;;;7.26;100.00;102254.38;5043777;28;20557;-83
2021/11/06 07:24:23;;;;;;;30.33;16.92;;;;;;;7.26;100.00;102257.00;5041416;28;20064;-83
2021/11/06 07:26:49;;;;;;;28.35;17.30;;;;;;;7.35;100.00;102269.53;5041693;28;20410;-83
2021/11/06 07:29:14;;;;;;;34.13;17.45;;;;;;;7.29;100.00;102251.59;5038176;28;20033;-83
2021/11/06 07:31:40;;;;;;;29.02;16.73;;;;;;;7.38;100.00;102261.50;5011910;28;20029;-82
2021/11/06 07:34:06;;;;;;;29.85;17.15;;;;;;;7.39;100.00;102265.81;5041092;28;20506;-83
2021/11/06 07:36:31;;;;;;;28.92;16.85;;;;;;;7.47;100.00;102274.03;5037471;28;20064;-83
2021/11/06 07:38:57;;;;;;;30.40;17.75;;;;;;;7.55;100.00;102279.66;5025543;28;20502;-84
2021/11/06 07:41:23;;;;;;;40.47;19.02;;;;;;;7.35;100.00;102249.47;5039544;28;20036;-82
2021/11/06 07:43:50;;;;;;;33.00;17.50;;;;;;;7.54;100.00;102284.97;5023061;28;20041;-84
2021/11/06 07:46:16;;;;;;;32.45;18.63;;;;;;;7.43;100.00;102254.25;5036046;28;20108;-84
2021/11/06 07:48:42;;;;;;;34.72;18.67;;;;;;;7.60;100.00;102282.81;5043222;28;20087;-83
2021/11/06 07:51:08;;;;;;;35.50;20.17;;;;;;;7.59;100.00;102270.72;5041375;28;20105;-84
2021/11/06 07:53:34;;;;;;;37.25;19.48;;;;;;;7.65;100.00;102266.91;5013798;28;20055;-82
2021/11/06 07:56:00;;;;;;;33.25;19.90;;;;;;;7.79;100.00;102285.19;5043679;28;20048;-84
2021/11/06 07:58:25;;;;;;;39.30;19.50;;;;;;;7.71;100.00;102271.75;5028525;28;20495;-83
2021/11/06 08:00:51;;;;;;;32.50;19.75;;;;;;;7.79;100.00;102276.53;5058969;28;20032;-83
2021/11/06 08:03:17;;;;;;;37.47;20.70;;;;;;;7.79;100.00;102271.31;5047830;28;20049;-83
2021/11/06 08:05:43;;;;;;;38.67;21.65;;;;;;;7.86;100.00;102264.78;5044478;28;20037;-84
2021/11/06 08:08:09;;;;;;;33.45;21.42;;;;;;;7.88;100.00;102277.75;5031025;28;20139;-84
2021/11/06 08:10:35;;;;;;;33.05;20.92;;;;;;;7.90;100.00;102275.91;5016224;28;20068;-82
2021/11/06 08:13:03;;;;;;;38.58;23.15;;;;;;;7.86;100.00;102263.94;5043459;28;20459;-83
2021/11/06 08:15:29;;;;;;;43.50;23.02;;;;;;;7.75;100.00;102251.53;5042972;28;20112;-83
2021/11/06 08:17:55;;;;;;;41.38;23.77;;;;;;;7.82;100.00;102272.88;5026183;28;20048;-83
2021/11/06 08:20:25;;;;;;;34.40;23.27;;;;;;;7.68;100.00;102231.91;5060878;28;20037;-84
2021/11/06 08:22:52;;;;;;;40.05;23.02;;;;;;;7.78;100.00;102252.19;5030562;28;20059;-84
2021/11/06 08:25:19;;;;;;;38.38;23.13;;;;;;;7.72;100.00;102251.69;5028108;28;20029;-83
2021/11/06 08:27:47;;;;;;;39.63;24.20;;;;;;;7.72;100.00;102246.47;5029105;28;20044;-83
2021/11/06 08:30:16;;;;;;;38.13;24.20;;;;;;;7.70;100.00;102243.09;5038115;28;20509;-83
2021/11/06 08:32:43;;;;;;;38.85;23.98;;;;;;;7.73;100.00;102243.78;5041679;28;20183;-82
2021/11/06 08:35:09;;;;;;;39.80;24.63;;;;;;;7.90;100.00;102270.66;5041585;28;20118;-83
2021/11/06 08:37:35;;;;;;;41.63;23.45;;;;;;;8.04;100.00;102277.66;5028441;28;20060;-84
2021/11/06 08:40:02;;;;;;;40.80;25.33;;;;;;;8.00;100.00;102266.56;5042153;28;20021;-84
2021/11/06 08:42:28;;;;;;;40.45;23.77;;;;;;;8.02;100.00;102269.91;5005366;28;20041;-84
2021/11/06 08:44:55;;;;;;;35.72;23.55;;;;;;;8.07;100.00;102278.34;5037433;28;20327;-84
2021/11/06 08:47:21;;;;;;;44.25;24.85;;;;;;;8.05;100.00;102258.47;5039229;28;20123;-85
2021/11/06 08:49:47;;;;;;;37.03;23.05;;;;;;;8.15;100.00;102267.41;5023820;28;20034;-83
2021/11/06 08:52:12;;;;;;;42.15;24.42;;;;;;;8.14;100.00;102263.13;5024507;28;20033;-84
2021/11/06 08:54:38;;;;;;;37.83;24.95;;;;;;;8.14;100.00;102278.81;5025165;28;20056;-83
2021/11/06 08:57:06;;;;;;;41.00;23.80;;;;;;;8.12;100.00;102278.06;5060929;28;20028;-83
2021/11/06 08:59:31;;;;;;;34.33;23.02;;;;;;;8.11;100.00;102274.59;5008081;28;20072;-84
2021/11/06 09:01:57;;;;;;;43.30;24.70;;;;;;;8.08;100.00;102266.97;5021119;28;20053;-83
2021/11/06 09:04:24;;;;;;;41.78;24.73;;;;;;;8.12;100.00;102254.53;5033601;28;20116;-83
2021/11/06 09:06:51;;;;;;;34.97;24.85;;;;;;;8.19;100.00;102275.00;5025122;28;20549;-83
2021/11/06 09:09:17;;;;;;;44.50;26.30;;;;;;;8.10;100.00;102259.88;5027469;28;20041;-83
2021/11/06 09:11:46;;;;;;;44.42;25.95;;;;;;;8.23;100.00;102265.19;5025138;28;20049;-83
2021/11/06 09:14:13;;;;;;;39.63;25.45;;;;;;;8.25;100.00;102265.06;5058018;28;20033;-83
2021/11/06 09:16:39;;;;;;;38.15;24.83;;;;;;;8.30;100.00;102253.38;5053080;28;20025;-83
2021/11/06 09:19:05;;;;;;;43.22;25.23;;;;;;;8.50;100.00;102270.50;5024815;28;20095;-82
2021/11/06 09:21:32;;;;;;;37.78;25.00;;;;;;;8.42;100.00;102248.38;5058175;28;20080;-83
2021/11/06 09:24:02;;;;;;;42.22;23.45;;;;;;;8.52;100.00;102244.25;5037552;28;20029;-85
2021/11/06 09:26:34;;;;;;;35.05;23.95;;;;;;;8.56;100.00;102249.19;5035313;28;20045;-82
2021/11/06 09:29:00;;;;;;;40.20;24.80;;;;;;;8.58;100.00;102263.00;5026052;28;20091;-83
2021/11/06 09:31:25;;;;;;;34.72;24.05;;;;;;;8.68;100.00;102272.91;5026495;28;20041;-83
2021/11/06 09:33:51;;;;;;;34.42;24.00;;;;;;;8.64;100.00;102266.19;5020187;28;20017;-81
2021/11/06 09:36:17;;;;;;;35.33;24.15;;;;;;;8.74;100.00;102277.75;5022070;28;20120;-83
2021/11/06 09:38:43;;;;;;;33.13;22.70;;;;;;;8.74;100.00;102265.50;5008050;28;20483;-83
2021/11/06 09:41:10;;;;;;;35.35;23.30;;;;;;;8.75;100.00;102261.13;5038442;28;20025;-83
2021/11/06 09:43:37;;;;;;;39.38;23.65;;;;;;;8.88;100.00;102274.25;5002737;28;20091;-83
2021/11/06 09:46:04;;;;;;;36.38;22.58;;;;;;;8.89;100.00;102268.94;5008141;28;20064;-83
2021/11/06 09:48:30;;;;;;;32.42;22.55;;;;;;;8.98;100.00;102271.88;5046696;28;20062;-83
2021/11/06 09:50:58;;;;;;;33.83;22.63;;;;;;;8.96;100.00;102259.72;5057592;28;20087;-83
2021/11/06 09:53:27;;;;;;;35.85;23.08;;;;;;;8.98;100.00;102271.88;5040609;28;20025;-84
2021/11/06 09:55:54;;;;;;;32.15;21.45;;;;;;;8.99;100.00;102248.25;5053039;28;20029;-84
2021/11/06 09:58:20;;;;;;;33.22;21.92;;;;;;;9.14;100.00;102264.72;5037889;28;20502;-83
2021/11/06 10:00:46;;;;;;;34.15;21.45;;;;;;;9.20;100.00;102263.50;5046123;28;20040;-84
2021/11/06 10:03:13;;;;;;;31.88;20.90;;;;;;;9.23;100.00;102256.28;5044264;28;20040;-83
2021/11/06 10:05:50;;;;;;;38.28;21.48;;;;;;;9.24;100.00;102257.13;5027935;28;20037;-83
2021/11/06 10:08:35;;;;;;;33.58;21.55;;;;;;;9.26;100.00;102257.84;5043377;28;20626;-83
2021/11/06 10:11:30;;;;;;;31.15;21.05;;;;;;;9.27;100.00;102254.31;5040408;28;20029;-84
2021/11/06 10:14:00;;;;;;;31.02;20.77;;;;;;;9.21;100.00;102260.78;5006265;28;20120;-82
2021/11/06 10:16:41;;;;;;;31.17;22.52;;;;;;;9.23;100.00;102258.91;5046991;28;20151;-83
2021/11/06 10:19:18;;;;;;;30.88;20.98;;;;;;;9.31;100.00;102247.91;5024565;28;20024;-84
2021/11/06 10:21:51;;;;;;;30.48;20.63;;;;;;;9.33;100.00;102246.88;5034394;28;20031;-83
2021/11/06 10:24:36;;;;;;;33.25;20.77;;;;;;;9.39;100.00;102245.63;5038907;28;20115;-82
2021/11/06 10:27:18;;;;;;;35.58;20.40;;;;;;;9.37;100.00;102237.03;5053730;28;20130;-85
2021/11/06 10:29:58;;;;;;;35.22;21.10;;;;;;;9.32;100.00;102239.97;5046630;28;20029;-84
2021/11/06 10:32:24;;;;;;;30.17;20.48;;;;;;;9.27;100.00;102231.56;5031963;28;20033;-84
2021/11/06 10:34:52;;;;;;;38.25;22.20;;;;;;;9.24;100.00;102237.00;5039835;28;20092;-84
2021/11/06 10:37:19;;;;;;;33.67;22.77;;;;;;;9.22;100.00;102231.03;5011360;28;20132;-83
2021/11/06 10:39:58;;;;;;;35.42;22.85;;;;;;;9.19;100.00;102233.00;5043025;28;20392;-84
2021/11/06 10:42:25;;;;;;;35.45;22.45;;;;;;;9.15;100.00;102235.84;5030952;28;20135;-84
2021/11/06 10:45:16;;;;;;;32.47;22.67;;;;;;;9.04;100.00;102222.63;5042360;28;20497;-84
2021/11/06 10:47:54;;;;;;;34.05;22.05;;;;;;;9.04;100.00;102230.47;5012321;28;20037;-83
2021/11/06 10:50:35;;;;;;;30.88;21.92;;;;;;;9.02;100.00;102221.84;5020521;28;20037;-83
2021/11/06 10:53:01;;;;;;;34.85;22.95;;;;;;;8.95;100.00;102224.03;5043528;28;20744;-82
2021/11/06 10:55:32;;;;;;;35.75;23.85;;;;;;;8.91;100.00;102219.09;5049814;28;20094;-83
2021/11/06 10:57:58;;;;;;;37.38;23.92;;;;;;;8.90;100.00;102223.50;5039718;28;20044;-84
2021/11/06 11:00:24;;;;;;;35.40;24.02;;;;;;;8.99;100.00;102229.09;5025806;28;20060;-84
2021/11/06 11:02:49;;;;;;;36.30;23.38;;;;;;;8.96;100.00;102217.03;5011716;28;20036;-84
2021/11/06 11:05:30;;;;;;;36.03;23.52;;;;;;;8.92;100.00;102212.94;5057276;28;20500;-83
2021/11/06 11:08:10;;;;;;;37.92;22.77;;;;;;;8.95;100.00;102208.34;5047397;28;20041;-84
2021/11/06 11:10:38;;;;;;;36.20;23.58;;;;;;;8.95;100.00;102203.09;5025126;28;20044;-83
2021/11/06 11:13:19;;;;;;;32.10;22.52;;;;;;;8.95;100.00;102197.03;5043734;28;20035;-84